createdAt,value
2023-05-16T00:00:38.684Z,30.94
2023-05-16T00:01:38.718Z,32.63
2023-05-16T00:02:38.738Z,32.00
2023-05-16T00:03:38.745Z,33.03
2023-05-16T00:04:38.767Z,33.54
2023-05-16T00:05:38.715Z,31.94
2023-05-16T00:06:38.690Z,32.51
2023-05-16T00:07:38.707Z,32.29
2023-05-16T00:08:38.712Z,31.47
2023-05-16T00:09:38.701Z,29.13
2023-05-16T00:10:38.718Z,30.20
2023-05-16T00:11:38.702Z,28.44
2023-05-16T00:12:38.700Z,31.31
2023-05-16T00:13:38.696Z,32.12
2023-05-16T00:14:38.720Z,28.37
2023-05-16T00:15:38.719Z,32.77
2023-05-16T00:16:38.744Z,29.02
2023-05-16T00:17:38.757Z,28.74
2023-05-16T00:18:38.763Z,31.55
2023-05-16T00:19:38.712Z,29.49
2023-05-16T00:20:38.737Z,28.66
2023-05-16T00:21:38.708Z,30.56
2023-05-16T00:22:38.710Z,28.30
2023-05-16T00:23:38.717Z,30.41
2023-05-16T00:24:38.728Z,30.41
2023-05-16T00:25:38.721Z,28.25
2023-05-16T00:26:38.721Z,31.95
2023-05-16T00:27:38.714Z,31.33
2023-05-16T00:28:38.714Z,28.98
2023-05-16T00:29:38.715Z,29.31
2023-05-16T00:30:38.723Z,31.23
2023-05-16T00:31:38.755Z,28.80
2023-05-16T00:32:38.789Z,28.34
2023-05-16T00:33:38.724Z,28.20
2023-05-16T00:34:38.887Z,29.16
2023-05-16T00:35:38.721Z,28.99
2023-05-16T00:36:38.732Z,29.21
2023-05-16T00:37:38.737Z,30.51
2023-05-16T00:38:38.728Z,26.61
2023-05-16T00:39:38.734Z,27.56
2023-05-16T00:40:38.734Z,27.33
2023-05-16T00:41:38.729Z,29.51
2023-05-16T00:42:38.737Z,28.27
2023-05-16T00:43:38.721Z,28.91
2023-05-16T00:44:38.722Z,30.09
2023-05-16T00:45:38.751Z,26.48
2023-05-16T00:46:38.872Z,27.87
2023-05-16T00:47:38.854Z,26.73
2023-05-16T00:48:38.772Z,28.12
2023-05-16T00:49:38.785Z,27.92
2023-05-16T00:50:38.793Z,28.20
2023-05-16T00:51:38.796Z,28.32
2023-05-16T00:52:38.817Z,30.78
2023-05-16T00:53:38.829Z,30.25
2023-05-16T00:54:38.854Z,29.52
2023-05-16T00:55:38.862Z,26.53
2023-05-16T00:56:38.872Z,32.02
2023-05-16T00:57:38.880Z,30.91
2023-05-16T00:58:38.900Z,27.09
2023-05-16T00:59:38.912Z,28.91
2023-05-16T01:00:38.939Z,31.14
2023-05-16T01:01:38.991Z,31.27
2023-05-16T01:02:39.052Z,31.41
2023-05-16T01:03:39.079Z,31.95
2023-05-16T01:04:38.949Z,28.95
2023-05-16T01:05:38.949Z,27.52
2023-05-16T01:06:38.956Z,26.78
2023-05-16T01:07:38.964Z,28.47
2023-05-16T01:08:38.970Z,29.46
2023-05-16T01:09:38.981Z,28.43
2023-05-16T01:10:38.995Z,30.60
2023-05-16T01:11:38.996Z,31.13
2023-05-16T01:12:38.997Z,32.08
2023-05-16T01:13:39.002Z,30.86
2023-05-16T01:14:39.033Z,28.81
2023-05-16T01:15:39.038Z,26.91
2023-05-16T01:16:39.186Z,29.98
2023-05-16T01:17:39.065Z,30.07
2023-05-16T01:18:39.080Z,30.28
2023-05-16T01:19:39.064Z,30.34
2023-05-16T01:20:39.107Z,31.27
2023-05-16T01:21:39.086Z,32.18
2023-05-16T01:22:39.090Z,32.06
2023-05-16T01:23:39.093Z,30.32
2023-05-16T01:24:39.099Z,30.45
2023-05-16T01:25:39.113Z,31.39
2023-05-16T01:26:39.127Z,32.27
2023-05-16T01:27:39.115Z,30.00
2023-05-16T01:28:39.140Z,31.29
2023-05-16T01:29:39.136Z,32.70
2023-05-16T01:30:39.157Z,29.71
2023-05-16T01:31:39.241Z,29.48
2023-05-16T01:32:39.186Z,28.99
2023-05-16T01:33:39.192Z,28.56
2023-05-16T01:34:39.177Z,32.93
2023-05-16T01:35:39.193Z,28.86
2023-05-16T01:36:39.203Z,30.48
2023-05-16T01:37:39.205Z,28.26
2023-05-16T01:38:39.196Z,30.22
2023-05-16T01:39:39.214Z,31.54
2023-05-16T01:40:39.231Z,27.23
2023-05-16T01:41:39.223Z,27.46
2023-05-16T01:42:39.215Z,28.27
2023-05-16T01:43:39.218Z,28.89
2023-05-16T01:44:39.227Z,29.51
2023-05-16T01:45:39.243Z,28.62
2023-05-16T01:46:39.243Z,30.03
2023-05-16T01:47:39.266Z,30.18
2023-05-16T01:48:39.224Z,30.83
2023-05-16T01:49:39.252Z,29.16
2023-05-16T01:50:39.218Z,27.47
2023-05-16T01:51:39.215Z,30.51
2023-05-16T01:52:39.211Z,27.52
2023-05-16T01:53:39.245Z,31.95
2023-05-16T01:54:39.225Z,25.75
2023-05-16T01:55:39.260Z,27.83
2023-05-16T01:56:39.232Z,27.50
2023-05-16T01:57:39.232Z,26.93
2023-05-16T01:58:39.236Z,29.23
2023-05-16T01:59:39.260Z,27.87
2023-05-16T02:00:39.261Z,29.74
2023-05-16T02:01:39.423Z,30.13
2023-05-16T02:02:39.292Z,27.04
2023-05-16T02:03:39.307Z,27.31
2023-05-16T02:04:39.248Z,25.92
2023-05-16T02:05:39.245Z,28.62
2023-05-16T02:06:39.250Z,30.09
2023-05-16T02:07:39.257Z,29.18
2023-05-16T02:08:39.254Z,29.08
2023-05-16T02:09:39.326Z,30.40
2023-05-16T02:10:39.264Z,28.91
2023-05-16T02:11:39.261Z,25.00
2023-05-16T02:12:39.264Z,27.99
2023-05-16T02:13:39.265Z,27.87
2023-05-16T02:14:39.278Z,27.60
2023-05-16T02:15:39.298Z,28.03
2023-05-16T02:16:39.385Z,31.29
2023-05-16T02:17:39.371Z,30.67
2023-05-16T02:18:39.436Z,31.94
2023-05-16T02:19:39.382Z,29.56
2023-05-16T02:20:39.409Z,29.72
2023-05-16T02:21:39.425Z,26.45
2023-05-16T02:22:39.426Z,26.69
2023-05-16T02:23:39.438Z,27.13
2023-05-16T02:24:39.441Z,27.81
2023-05-16T02:25:39.444Z,28.82
2023-05-16T02:26:39.429Z,29.19
2023-05-16T02:27:39.438Z,29.48
2023-05-16T02:28:39.442Z,31.72
2023-05-16T02:29:39.429Z,28.36
2023-05-16T02:30:39.485Z,29.29
2023-05-16T02:31:39.599Z,26.85
2023-05-16T02:32:39.471Z,27.35
2023-05-16T02:33:39.424Z,28.69
2023-05-16T02:34:39.432Z,29.18
2023-05-16T02:35:39.434Z,28.00
2023-05-16T02:36:39.434Z,30.33
2023-05-16T02:37:39.415Z,26.89
2023-05-16T02:38:39.416Z,27.92
2023-05-16T02:39:39.444Z,30.21
2023-05-16T02:40:39.421Z,28.38
2023-05-16T02:41:39.419Z,27.18
2023-05-16T02:42:39.426Z,27.38
2023-05-16T02:43:39.423Z,27.50
2023-05-16T02:44:39.429Z,27.86
2023-05-16T02:45:39.422Z,29.37
2023-05-16T02:46:39.483Z,26.52
2023-05-16T02:47:39.463Z,30.27
2023-05-16T02:48:39.436Z,28.92
2023-05-16T02:49:39.453Z,27.23
2023-05-16T02:50:39.435Z,25.59
2023-05-16T02:51:39.445Z,27.38
2023-05-16T02:52:39.449Z,26.97
2023-05-16T02:53:39.440Z,27.06
2023-05-16T02:54:39.445Z,26.48
2023-05-16T02:55:39.633Z,29.22
2023-05-16T02:56:39.445Z,27.80
2023-05-16T02:57:39.454Z,27.84
2023-05-16T02:58:39.454Z,28.36
2023-05-16T02:59:39.449Z,28.08
2023-05-16T03:00:39.453Z,30.26
2023-05-16T03:01:39.544Z,30.97
2023-05-16T03:02:39.654Z,25.04
2023-05-16T03:03:39.666Z,24.42
2023-05-16T03:04:39.582Z,20.26
2023-05-16T03:05:39.616Z,21.63
2023-05-16T03:06:39.645Z,23.72
2023-05-16T03:07:39.703Z,24.79
2023-05-16T03:08:39.761Z,23.07
2023-05-16T03:09:39.799Z,22.30
2023-05-16T03:10:39.866Z,23.59
2023-05-16T03:11:39.910Z,24.60
2023-05-16T03:12:39.949Z,23.63
2023-05-16T03:13:39.983Z,24.66
2023-05-16T03:14:40.024Z,25.00
2023-05-16T03:15:40.023Z,25.00
2023-05-16T03:16:40.106Z,22.97
2023-05-16T03:17:40.090Z,22.41
2023-05-16T03:18:40.080Z,25.00
2023-05-16T03:19:40.061Z,25.23
2023-05-16T03:20:40.084Z,24.12
2023-05-16T03:21:40.084Z,24.67
2023-05-16T03:22:40.104Z,25.65
2023-05-16T03:23:40.137Z,25.00
2023-05-16T03:24:40.181Z,24.15
2023-05-16T03:25:40.185Z,25.00
2023-05-16T03:26:40.197Z,25.00
2023-05-16T03:27:40.213Z,25.72
2023-05-16T03:28:40.249Z,26.14
2023-05-16T03:29:40.278Z,25.00
2023-05-16T03:30:40.315Z,25.00
2023-05-16T03:31:40.390Z,24.32
2023-05-16T03:32:40.425Z,26.54
2023-05-16T03:33:40.444Z,25.00
2023-05-16T03:34:40.480Z,25.85
2023-05-16T03:35:40.532Z,27.52
2023-05-16T03:36:40.584Z,28.67
2023-05-16T03:37:40.624Z,25.96
2023-05-16T03:38:40.685Z,26.03
2023-05-16T03:39:40.742Z,25.00
2023-05-16T03:40:40.804Z,26.82
2023-05-16T03:41:40.852Z,25.77
2023-05-16T03:42:40.903Z,25.36
2023-05-16T03:43:40.954Z,25.45
2023-05-16T03:44:40.965Z,25.14
2023-05-16T03:45:41.003Z,25.49
2023-05-16T03:46:40.995Z,19.56
2023-05-16T03:47:41.103Z,12.75
2023-05-16T03:48:41.018Z,16.12
2023-05-16T03:49:41.020Z,25.49
2023-05-16T03:50:41.293Z,25.00
2023-05-16T03:51:41.042Z,26.36
2023-05-16T03:52:41.057Z,26.47
2023-05-16T03:53:41.060Z,26.12
2023-05-16T03:54:41.070Z,25.00
2023-05-16T03:55:41.111Z,27.06
2023-05-16T03:56:41.156Z,26.65
2023-05-16T03:57:41.226Z,28.54
2023-05-16T03:58:41.232Z,24.46
2023-05-16T03:59:41.276Z,24.44
2023-05-16T04:00:41.246Z,19.78
2023-05-16T04:01:41.293Z,14.82
2023-05-16T04:02:41.443Z,16.42
2023-05-16T04:03:41.280Z,25.00
2023-05-16T04:04:41.296Z,26.42
2023-05-16T04:05:41.395Z,26.39
2023-05-16T04:06:41.319Z,27.38
2023-05-16T04:07:41.329Z,25.18
2023-05-16T04:08:41.337Z,22.81
2023-05-16T04:09:41.359Z,22.13
2023-05-16T04:10:41.379Z,19.17
2023-05-16T04:11:41.405Z,18.43
2023-05-16T04:12:41.398Z,25.03
2023-05-16T04:13:41.431Z,29.29
2023-05-16T04:14:41.422Z,32.16
2023-05-16T04:15:41.435Z,34.25
2023-05-16T04:16:41.534Z,40.49
2023-05-16T04:17:41.633Z,41.94
2023-05-16T04:18:41.715Z,47.16
2023-05-16T04:19:41.751Z,48.98
2023-05-16T04:20:41.826Z,50.00
2023-05-16T04:21:41.890Z,47.94
2023-05-16T04:22:41.990Z,45.86
2023-05-16T04:23:42.045Z,49.60
2023-05-16T04:24:42.119Z,51.86
2023-05-16T04:25:42.203Z,52.80
2023-05-16T04:26:42.261Z,54.56
2023-05-16T04:27:42.341Z,51.38
2023-05-16T04:28:42.401Z,50.83
2023-05-16T04:29:42.489Z,52.70
2023-05-16T04:30:42.577Z,51.48
2023-05-16T04:31:42.661Z,53.40
2023-05-16T04:32:42.735Z,51.19
2023-05-16T04:33:42.741Z,50.14
2023-05-16T04:34:42.745Z,46.12
2023-05-16T04:35:42.759Z,41.27
2023-05-16T04:36:42.800Z,37.67
2023-05-16T04:37:42.823Z,33.30
2023-05-16T04:38:42.824Z,34.66
2023-05-16T04:39:42.837Z,32.90
2023-05-16T04:40:42.858Z,35.03
2023-05-16T04:41:42.831Z,27.28
2023-05-16T04:42:42.847Z,30.69
2023-05-16T04:43:42.920Z,31.63
2023-05-16T04:44:42.974Z,35.78
2023-05-16T04:45:43.077Z,40.16
2023-05-16T04:46:43.141Z,38.69
2023-05-16T04:47:43.152Z,40.54
2023-05-16T04:48:43.210Z,41.25
2023-05-16T04:49:43.272Z,44.68
2023-05-16T04:50:43.323Z,46.53
2023-05-16T04:51:43.392Z,46.48
2023-05-16T04:52:43.427Z,42.87
2023-05-16T04:53:43.508Z,42.62
2023-05-16T04:54:43.552Z,38.78
2023-05-16T04:55:43.610Z,37.44
2023-05-16T04:56:43.608Z,37.47
2023-05-16T04:57:43.624Z,36.22
2023-05-16T04:58:43.629Z,37.65
2023-05-16T04:59:43.642Z,37.34
2023-05-16T05:00:43.649Z,33.38
2023-05-16T05:01:43.709Z,33.32
2023-05-16T05:02:43.731Z,30.46
2023-05-16T05:03:44.669Z,28.11
2023-05-16T05:04:43.714Z,25.00
2023-05-16T05:05:43.722Z,25.00
2023-05-16T05:06:43.730Z,27.31
2023-05-16T05:07:43.753Z,32.23
2023-05-16T05:08:43.750Z,33.99
2023-05-16T05:09:43.773Z,38.88
2023-05-16T05:10:43.770Z,41.06
2023-05-16T05:11:43.790Z,43.09
2023-05-16T05:12:43.787Z,43.16
2023-05-16T05:13:43.798Z,37.03
2023-05-16T05:14:43.826Z,36.06
2023-05-16T05:15:43.835Z,31.09
2023-05-16T05:16:43.844Z,28.98
2023-05-16T05:17:43.920Z,30.12
2023-05-16T05:18:43.889Z,27.00
2023-05-16T05:19:43.949Z,25.00
2023-05-16T05:20:43.866Z,25.74
2023-05-16T05:21:43.884Z,27.87
2023-05-16T05:22:43.890Z,37.54
2023-05-16T05:23:43.915Z,38.05
2023-05-16T05:24:43.921Z,41.87
2023-05-16T05:25:43.925Z,53.37
2023-05-16T05:26:43.928Z,72.65
2023-05-16T05:27:43.934Z,39.84
2023-05-16T05:29:43.949Z,51.00
2023-05-16T05:30:43.968Z,72.34
2023-05-16T05:31:43.979Z,108.52
2023-05-16T05:32:44.037Z,163.43
2023-05-16T05:33:44.042Z,187.37
2023-05-16T05:34:43.994Z,204.66
2023-05-16T05:35:44.058Z,229.60
2023-05-16T05:36:44.028Z,250.00
2023-05-16T05:37:44.036Z,250.00
2023-05-16T05:38:44.049Z,250.00
2023-05-16T05:39:44.080Z,249.50
2023-05-16T05:40:44.085Z,250.00
2023-05-16T05:41:44.100Z,235.06
2023-05-16T05:42:46.177Z,240.72
2023-05-16T05:43:44.289Z,250.00
2023-05-16T05:44:44.122Z,244.67
2023-05-16T05:45:44.291Z,244.76
2023-05-16T05:46:44.170Z,244.99
2023-05-16T05:47:44.209Z,249.31
2023-05-16T05:48:44.297Z,245.18
2023-05-16T05:49:44.207Z,245.03
2023-05-16T05:50:44.185Z,245.92
2023-05-16T05:51:44.245Z,220.11
2023-05-16T05:52:44.242Z,220.77
2023-05-16T05:53:44.223Z,243.71
2023-05-16T05:54:44.270Z,249.64
2023-05-16T05:55:44.255Z,251.85
2023-05-16T05:56:44.241Z,257.49
2023-05-16T05:57:44.225Z,250.45
2023-05-16T05:58:44.228Z,254.14
2023-05-16T05:59:44.221Z,261.39
2023-05-16T06:00:44.239Z,273.92
2023-05-16T06:01:44.270Z,285.57
2023-05-16T06:02:44.346Z,250.80
2023-05-16T06:03:44.253Z,255.58
2023-05-16T06:04:44.241Z,264.80
2023-05-16T06:05:44.388Z,283.26
2023-05-16T06:06:44.254Z,297.86
2023-05-16T06:07:44.261Z,235.58
2023-05-16T06:08:44.251Z,219.68
2023-05-16T06:09:44.255Z,171.99
2023-05-16T06:10:44.267Z,138.63
2023-05-16T06:11:44.252Z,121.05
2023-05-16T06:12:44.260Z,104.53
2023-05-16T06:13:44.272Z,98.83
2023-05-16T06:14:44.256Z,108.96
2023-05-16T06:15:44.266Z,96.84
2023-05-16T06:16:44.298Z,80.56
2023-05-16T06:17:44.306Z,80.79
2023-05-16T06:18:44.318Z,89.13
2023-05-16T06:19:44.282Z,87.53
2023-05-16T06:20:44.263Z,91.16
2023-05-16T06:21:44.323Z,80.95
2023-05-16T06:22:44.266Z,84.60
2023-05-16T06:23:44.279Z,72.31
2023-05-16T06:24:44.281Z,59.45
2023-05-16T06:25:44.280Z,53.76
2023-05-16T06:26:44.289Z,57.72
2023-05-16T06:27:44.322Z,54.64
2023-05-16T06:28:44.355Z,55.55
2023-05-16T06:29:44.382Z,64.21
2023-05-16T06:30:44.369Z,65.04
2023-05-16T06:31:44.460Z,69.62
2023-05-16T06:32:44.404Z,77.72
2023-05-16T06:33:44.422Z,90.46
2023-05-16T06:34:44.397Z,116.25
2023-05-16T06:35:44.404Z,65.45
2023-05-16T06:36:44.399Z,66.68
2023-05-16T06:37:44.394Z,67.96
2023-05-16T06:38:44.403Z,56.07
2023-05-16T06:39:44.472Z,46.95
2023-05-16T06:40:44.410Z,70.31
2023-05-16T06:41:44.423Z,86.48
2023-05-16T06:42:44.411Z,29.69
2023-05-16T06:43:44.448Z,0.00
2023-05-16T06:44:44.437Z,0.00
2023-05-16T06:45:44.449Z,0.00
2023-05-16T06:46:44.502Z,0.00
2023-05-16T06:47:44.485Z,0.00
2023-05-16T06:48:44.460Z,0.00
2023-05-16T06:49:44.465Z,0.00
2023-05-16T06:50:44.497Z,0.00
2023-05-16T06:51:44.517Z,11.98
2023-05-16T06:52:44.512Z,38.27
2023-05-16T06:53:44.554Z,55.11
2023-05-16T06:54:44.531Z,67.45
2023-05-16T06:55:44.546Z,89.30
2023-05-16T06:56:44.543Z,99.19
2023-05-16T06:57:44.550Z,117.01
2023-05-16T06:58:44.598Z,136.27
2023-05-16T06:59:44.617Z,148.21
2023-05-16T07:00:44.649Z,155.79
2023-05-16T07:01:44.773Z,156.19
2023-05-16T07:02:44.760Z,158.75
2023-05-16T07:03:44.771Z,165.78
2023-05-16T07:04:44.663Z,175.92
2023-05-16T07:05:44.660Z,192.71
2023-05-16T07:06:44.668Z,196.00
2023-05-16T07:07:44.729Z,202.56
2023-05-16T07:08:44.669Z,208.25
2023-05-16T07:09:44.709Z,208.35
2023-05-16T07:10:44.686Z,209.05
2023-05-16T07:11:44.667Z,211.10
2023-05-16T07:12:44.675Z,215.79
2023-05-16T07:13:44.714Z,225.03
2023-05-16T07:14:44.688Z,223.79
2023-05-16T07:15:44.685Z,232.51
2023-05-16T07:16:44.778Z,236.52
2023-05-16T07:17:44.748Z,236.19
2023-05-16T07:18:44.730Z,235.84
2023-05-16T07:19:44.721Z,227.58
2023-05-16T07:20:44.730Z,226.92
2023-05-16T07:21:44.725Z,213.86
2023-05-16T07:22:44.734Z,223.07
2023-05-16T07:23:44.770Z,234.91
2023-05-16T07:24:44.805Z,244.76
2023-05-16T07:25:44.967Z,244.94
2023-05-16T07:26:44.800Z,245.80
2023-05-16T07:27:44.825Z,248.34
2023-05-16T07:28:44.803Z,252.96
2023-05-16T07:29:44.822Z,258.65
2023-05-16T07:30:44.839Z,249.89
2023-05-16T07:31:44.871Z,233.52
2023-05-16T07:32:44.848Z,240.34
2023-05-16T07:33:44.819Z,245.35
2023-05-16T07:34:44.807Z,244.59
2023-05-16T07:35:44.825Z,249.54
2023-05-16T07:36:44.809Z,222.19
2023-05-16T07:37:44.811Z,213.95
2023-05-16T07:38:44.850Z,211.18
2023-05-16T07:39:44.815Z,196.07
2023-05-16T07:40:44.818Z,168.32
2023-05-16T07:41:44.818Z,189.80
2023-05-16T07:42:44.844Z,184.32
2023-05-16T07:43:44.819Z,172.86
2023-05-16T07:44:44.825Z,174.23
2023-05-16T07:45:44.856Z,197.62
2023-05-16T07:46:45.119Z,204.65
2023-05-16T07:47:44.882Z,210.94
2023-05-16T07:48:44.916Z,215.53
2023-05-16T07:49:45.066Z,221.26
2023-05-16T07:50:46.911Z,233.74
2023-05-16T07:51:45.023Z,241.80
2023-05-16T07:52:45.043Z,241.33
2023-05-16T07:53:45.034Z,241.59
2023-05-16T07:54:45.021Z,243.28
2023-05-16T07:55:45.022Z,246.13
2023-05-16T07:56:45.016Z,241.88
2023-05-16T07:57:45.027Z,241.79
2023-05-16T07:58:45.044Z,243.41
2023-05-16T07:59:45.148Z,247.64
2023-05-16T08:00:45.031Z,242.07
2023-05-16T08:01:45.024Z,242.16
2023-05-16T08:02:45.107Z,244.26
2023-05-16T08:03:45.140Z,246.64
2023-05-16T08:04:45.020Z,252.46
2023-05-16T08:05:45.229Z,256.89
2023-05-16T08:06:45.030Z,249.05
2023-05-16T08:07:45.031Z,249.67
2023-05-16T08:08:45.064Z,246.67
2023-05-16T08:09:45.024Z,244.31
2023-05-16T08:10:45.018Z,245.24
2023-05-16T08:11:45.022Z,248.19
2023-05-16T08:12:45.034Z,248.19
2023-05-16T08:13:45.017Z,248.34
2023-05-16T08:14:45.009Z,249.95
2023-05-16T08:15:45.104Z,254.60
2023-05-16T08:16:45.207Z,255.46
2023-05-16T08:17:45.067Z,248.39
2023-05-16T08:18:45.076Z,249.06
2023-05-16T08:19:45.015Z,251.36
2023-05-16T08:20:45.018Z,252.69
2023-05-16T08:21:45.003Z,258.15
2023-05-16T08:22:45.003Z,248.47
2023-05-16T08:23:45.009Z,248.31
2023-05-16T08:24:45.019Z,250.00
2023-05-16T08:25:45.023Z,248.40
2023-05-16T08:26:45.014Z,246.44
2023-05-16T08:27:44.999Z,246.35
2023-05-16T08:28:44.997Z,251.14
2023-05-16T08:29:45.018Z,257.96
2023-05-16T08:30:47.182Z,250.07
2023-05-16T08:31:45.028Z,250.00
2023-05-16T08:32:44.999Z,249.71
2023-05-16T08:33:44.970Z,249.88
2023-05-16T08:34:45.211Z,248.09
2023-05-16T08:35:44.984Z,226.57
2023-05-16T08:36:44.983Z,212.47
2023-05-16T08:37:44.988Z,207.42
2023-05-16T08:38:44.989Z,202.05
2023-05-16T08:39:44.961Z,199.21
2023-05-16T08:40:44.959Z,193.73
2023-05-16T08:41:44.962Z,184.14
2023-05-16T08:42:45.463Z,173.87
2023-05-16T08:43:44.939Z,164.05
2023-05-16T08:44:44.987Z,150.77
2023-05-16T08:45:44.977Z,144.01
2023-05-16T08:46:44.956Z,143.38
2023-05-16T08:47:44.995Z,147.37
2023-05-16T08:48:44.968Z,156.05
2023-05-16T08:49:44.937Z,164.24
2023-05-16T08:50:44.936Z,163.22
2023-05-16T08:51:45.003Z,159.68
2023-05-16T08:52:44.951Z,157.21
2023-05-16T08:53:44.931Z,159.43
2023-05-16T08:54:45.807Z,171.29
2023-05-16T08:55:44.892Z,171.33
2023-05-16T08:56:44.917Z,171.79
2023-05-16T08:57:44.899Z,172.78
2023-05-16T08:58:44.880Z,177.20
2023-05-16T08:59:44.864Z,185.67
2023-05-16T09:00:44.905Z,190.86
2023-05-16T09:01:44.913Z,195.07
2023-05-16T09:02:44.933Z,199.05
2023-05-16T09:03:44.872Z,200.90
2023-05-16T09:04:44.841Z,202.85
2023-05-16T09:05:44.832Z,204.82
2023-05-16T09:06:44.827Z,208.30
2023-05-16T09:07:44.828Z,213.20
2023-05-16T09:08:44.842Z,214.42
2023-05-16T09:09:44.834Z,214.19
2023-05-16T09:10:44.818Z,216.44
2023-05-16T09:11:44.826Z,216.23
2023-05-16T09:12:44.819Z,220.28
2023-05-16T09:13:44.820Z,218.47
2023-05-16T09:14:44.810Z,217.26
2023-05-16T09:15:44.792Z,219.99
2023-05-16T09:16:44.861Z,221.40
2023-05-16T09:17:45.168Z,223.87
2023-05-16T09:18:44.900Z,220.15
2023-05-16T09:19:44.820Z,176.62
2023-05-16T09:20:44.751Z,154.59
2023-05-16T09:21:44.734Z,121.76
2023-05-16T09:22:44.718Z,90.94
2023-05-16T09:23:44.717Z,52.44
2023-05-16T09:24:44.708Z,26.20
2023-05-16T09:25:44.692Z,17.86
2023-05-16T09:26:44.760Z,14.21
2023-05-16T09:27:44.838Z,30.19
2023-05-16T09:28:44.954Z,28.90
2023-05-16T09:29:44.938Z,26.13
2023-05-16T09:30:44.998Z,25.00
2023-05-16T09:31:45.040Z,29.35
2023-05-16T09:32:45.112Z,15.46
2023-05-16T09:33:45.063Z,20.48
2023-05-16T09:34:45.065Z,26.77
2023-05-16T09:35:45.830Z,33.26
2023-05-16T09:36:45.048Z,43.09
2023-05-16T09:37:45.073Z,58.19
2023-05-16T09:38:45.051Z,66.52
2023-05-16T09:39:45.058Z,79.48
2023-05-16T09:40:45.098Z,90.41
2023-05-16T09:41:45.106Z,105.70
2023-05-16T09:42:45.142Z,123.48
2023-05-16T09:43:45.196Z,141.41
2023-05-16T09:44:45.280Z,152.31
2023-05-16T09:45:45.317Z,163.15
2023-05-16T09:46:45.396Z,172.91
2023-05-16T09:47:45.421Z,181.52
2023-05-16T09:48:45.425Z,171.13
2023-05-16T09:49:45.657Z,154.08
2023-05-16T09:50:45.517Z,136.66
2023-05-16T09:51:45.560Z,116.26
2023-05-16T09:52:45.620Z,103.86
2023-05-16T09:53:45.660Z,87.71
2023-05-16T09:54:47.471Z,65.60
2023-05-16T09:55:45.795Z,74.29
2023-05-16T09:56:45.864Z,80.31
2023-05-16T09:57:45.877Z,91.88
2023-05-16T09:58:45.919Z,97.64
2023-05-16T09:59:45.944Z,97.55
2023-05-16T10:00:45.983Z,100.85
2023-05-16T10:01:46.022Z,95.63
2023-05-16T10:02:46.078Z,86.46
2023-05-16T10:03:46.067Z,80.27
2023-05-16T10:04:45.986Z,87.09
2023-05-16T10:05:46.089Z,84.13
2023-05-16T10:06:46.010Z,75.97
2023-05-16T10:07:45.994Z,80.41
2023-05-16T10:08:45.985Z,80.31
2023-05-16T10:09:45.973Z,78.22
2023-05-16T10:10:46.004Z,70.32
2023-05-16T10:11:46.001Z,70.55
2023-05-16T10:12:45.980Z,59.83
2023-05-16T10:13:45.966Z,52.51
2023-05-16T10:14:45.980Z,52.04
2023-05-16T10:15:45.971Z,52.16
2023-05-16T10:16:46.045Z,50.69
2023-05-16T10:17:46.015Z,53.54
2023-05-16T10:18:46.000Z,57.18
2023-05-16T10:19:45.972Z,53.11
2023-05-16T10:20:45.976Z,53.30
2023-05-16T10:21:46.608Z,53.77
2023-05-16T10:22:45.982Z,59.95
2023-05-16T10:23:45.986Z,70.38
2023-05-16T10:24:45.995Z,54.10
2023-05-16T10:25:46.001Z,57.38
2023-05-16T10:26:46.025Z,65.33
2023-05-16T10:27:46.012Z,74.08
2023-05-16T10:28:46.004Z,72.47
2023-05-16T10:29:54.264Z,67.09
2023-05-16T10:30:47.028Z,67.34
2023-05-16T10:31:46.059Z,69.04
2023-05-16T10:32:46.012Z,72.41
2023-05-16T10:33:45.996Z,81.13
2023-05-16T10:34:45.990Z,91.45
2023-05-16T10:35:45.988Z,98.69
2023-05-16T10:36:46.009Z,112.17
2023-05-16T10:37:46.028Z,127.36
2023-05-16T10:38:46.051Z,139.15
2023-05-16T10:39:46.030Z,147.26
2023-05-16T10:40:46.068Z,100.40
2023-05-16T10:41:46.067Z,86.15
2023-05-16T10:42:46.091Z,82.26
2023-05-16T10:43:46.122Z,84.87
2023-05-16T10:44:54.619Z,81.62
2023-05-16T10:45:47.211Z,81.68
2023-05-16T10:46:46.168Z,83.55
2023-05-16T10:47:46.227Z,91.02
2023-05-16T10:48:46.159Z,107.15
2023-05-16T10:49:46.164Z,133.53
2023-05-16T10:50:46.167Z,143.25
2023-05-16T10:51:46.190Z,153.76
2023-05-16T10:52:46.168Z,168.57
2023-05-16T10:53:46.459Z,175.94
2023-05-16T10:54:46.172Z,185.51
2023-05-16T10:55:46.174Z,185.90
2023-05-16T10:56:46.183Z,188.22
2023-05-16T10:57:46.186Z,137.22
2023-05-16T10:58:46.176Z,103.34
2023-05-16T10:59:46.189Z,89.42
2023-05-16T11:00:46.187Z,75.65
2023-05-16T11:01:46.405Z,66.41
2023-05-16T11:02:46.361Z,63.19
2023-05-16T11:03:46.357Z,53.28
2023-05-16T11:04:46.225Z,51.61
2023-05-16T11:05:46.243Z,44.32
2023-05-16T11:06:46.269Z,40.72
2023-05-16T11:07:46.266Z,35.58
2023-05-16T11:08:46.306Z,41.16
2023-05-16T11:09:46.378Z,33.74
2023-05-16T11:10:46.372Z,32.98
2023-05-16T11:11:48.599Z,41.01
2023-05-16T11:12:46.461Z,42.83
2023-05-16T11:13:46.473Z,39.41
2023-05-16T11:14:46.496Z,39.36
2023-05-16T11:15:46.497Z,43.67
2023-05-16T11:16:46.538Z,57.74
2023-05-16T11:17:46.610Z,86.75
2023-05-16T11:18:46.587Z,106.24
2023-05-16T11:19:46.541Z,106.72
2023-05-16T11:20:46.579Z,109.77
2023-05-16T11:21:46.577Z,117.40
2023-05-16T11:22:46.584Z,131.54
2023-05-16T11:23:46.595Z,158.59
2023-05-16T11:24:46.612Z,172.62
2023-05-16T11:25:46.659Z,186.30
2023-05-16T11:26:46.636Z,196.33
2023-05-16T11:27:46.647Z,210.28
2023-05-16T11:28:46.641Z,220.40
2023-05-16T11:29:46.668Z,226.51
2023-05-16T11:30:46.680Z,234.18
2023-05-16T11:31:46.732Z,234.22
2023-05-16T11:32:46.753Z,236.51
2023-05-16T11:33:46.682Z,237.82
2023-05-16T11:34:46.750Z,241.46
2023-05-16T11:35:46.823Z,243.48
2023-05-16T11:36:46.877Z,246.45
2023-05-16T11:37:47.103Z,247.60
2023-05-16T11:38:46.989Z,249.22
2023-05-16T11:39:47.104Z,250.00
2023-05-16T11:40:47.093Z,249.79
2023-05-16T11:41:48.889Z,249.67
2023-05-16T11:42:47.195Z,250.00
2023-05-16T11:43:47.252Z,251.04
2023-05-16T11:44:47.306Z,249.92
2023-05-16T11:45:47.336Z,248.48
2023-05-16T11:46:47.430Z,248.55
2023-05-16T11:47:47.523Z,248.46
2023-05-16T11:48:47.615Z,247.14
2023-05-16T11:49:48.870Z,249.17
2023-05-16T11:50:47.537Z,248.52
2023-05-16T11:51:47.553Z,249.54
2023-05-16T11:52:47.569Z,250.00
2023-05-16T11:53:47.596Z,249.78
2023-05-16T11:54:47.648Z,249.21
2023-05-16T11:55:50.150Z,248.81
2023-05-16T11:56:47.681Z,249.33
2023-05-16T11:57:47.773Z,254.50
2023-05-16T11:58:47.712Z,261.61
2023-05-16T11:59:47.699Z,270.62
2023-05-16T12:00:47.688Z,280.45
2023-05-16T12:01:47.688Z,273.66
2023-05-16T12:02:47.901Z,264.79
2023-05-16T12:03:47.962Z,257.85
2023-05-16T12:04:47.978Z,251.22
2023-05-16T12:05:47.712Z,250.00
2023-05-16T12:06:47.720Z,249.25
2023-05-16T12:07:47.687Z,248.28
2023-05-16T12:08:47.694Z,247.74
2023-05-16T12:09:47.685Z,247.84
2023-05-16T12:10:47.684Z,247.87
2023-05-16T12:11:47.683Z,247.10
2023-05-16T12:12:47.682Z,245.98
2023-05-16T12:13:47.730Z,244.07
2023-05-16T12:14:47.684Z,242.25
2023-05-16T12:15:47.688Z,241.71
2023-05-16T12:16:47.712Z,240.66
2023-05-16T12:17:47.833Z,239.19
2023-05-16T12:18:47.734Z,237.56
2023-05-16T12:19:47.688Z,234.91
2023-05-16T12:20:47.692Z,233.41
2023-05-16T12:21:47.702Z,233.26
2023-05-16T12:22:47.692Z,231.35
2023-05-16T12:23:47.696Z,230.70
2023-05-16T12:24:47.715Z,229.89
2023-05-16T12:25:47.790Z,227.93
2023-05-16T12:26:47.699Z,227.62
2023-05-16T12:27:47.689Z,226.99
2023-05-16T12:28:47.689Z,225.87
2023-05-16T12:29:47.733Z,224.12
2023-05-16T12:30:47.738Z,225.17
2023-05-16T12:31:47.801Z,224.83
2023-05-16T12:32:47.873Z,223.59
2023-05-16T12:33:47.736Z,224.50
2023-05-16T12:34:47.710Z,226.28
2023-05-16T12:35:47.730Z,228.37
2023-05-16T12:36:47.701Z,230.63
2023-05-16T12:37:47.695Z,230.77
2023-05-16T12:38:47.695Z,231.45
2023-05-16T12:39:47.697Z,233.41
2023-05-16T12:40:47.701Z,238.64
2023-05-16T12:41:47.692Z,246.21
2023-05-16T12:42:47.692Z,248.43
2023-05-16T12:43:47.699Z,249.40
2023-05-16T12:44:47.697Z,249.71